sensor_id;sensor_type;location;lat;lon;timestamp;pressure;altitude;pressure_sealevel;temperature
68911;BMP180;55953;51.650;-0.522;2024-01-06T00:01:20;100119.20;;;6.80
68911;BMP180;55953;51.650;-0.522;2024-01-06T00:03:48;100124.40;;;6.90
68911;BMP180;55953;51.650;-0.522;2024-01-06T00:06:16;100127.20;;;6.90
68911;BMP180;55953;51.650;-0.522;2024-01-06T00:08:45;100124.00;;;7.00
68911;BMP180;55953;51.650;-0.522;2024-01-06T00:11:13;100126.00;;;7.02
68911;BMP180;55953;51.650;-0.522;2024-01-06T00:13:41;100121.40;;;7.00
68911;BMP180;55953;51.650;-0.522;2024-01-06T00:16:09;100122.00;;;6.90
68911;BMP180;55953;51.650;-0.522;2024-01-06T00:18:37;100124.20;;;6.90
68911;BMP180;55953;51.650;-0.522;2024-01-06T00:21:05;100126.60;;;6.90
68911;BMP180;55953;51.650;-0.522;2024-01-06T00:23:33;100130.00;;;6.90
68911;BMP180;55953;51.650;-0.522;2024-01-06T00:26:01;100132.40;;;6.90
68911;BMP180;55953;51.650;-0.522;2024-01-06T00:28:30;100141.80;;;6.90
68911;BMP180;55953;51.650;-0.522;2024-01-06T00:30:58;100141.60;;;6.94
68911;BMP180;55953;51.650;-0.522;2024-01-06T00:33:26;100147.40;;;6.90
68911;BMP180;55953;51.650;-0.522;2024-01-06T00:35:54;100150.80;;;6.90
68911;BMP180;55953;51.650;-0.522;2024-01-06T00:38:23;100149.20;;;6.90
68911;BMP180;55953;51.650;-0.522;2024-01-06T00:40:51;100154.80;;;6.88
68911;BMP180;55953;51.650;-0.522;2024-01-06T00:43:19;100149.60;;;6.80
68911;BMP180;55953;51.650;-0.522;2024-01-06T00:45:47;100147.00;;;6.80
68911;BMP180;55953;51.650;-0.522;2024-01-06T00:48:16;100146.80;;;6.80
68911;BMP180;55953;51.650;-0.522;2024-01-06T00:50:44;100151.60;;;6.80
68911;BMP180;55953;51.650;-0.522;2024-01-06T00:53:14;100153.60;;;6.80
68911;BMP180;55953;51.650;-0.522;2024-01-06T00:55:42;100153.00;;;6.76
68911;BMP180;55953;51.650;-0.522;2024-01-06T00:58:10;100160.20;;;6.70
68911;BMP180;55953;51.650;-0.522;2024-01-06T01:00:38;100165.60;;;6.70
68911;BMP180;55953;51.650;-0.522;2024-01-06T01:03:07;100166.80;;;6.70
68911;BMP180;55953;51.650;-0.522;2024-01-06T01:05:35;100174.00;;;6.70
68911;BMP180;55953;51.650;-0.522;2024-01-06T01:08:03;100167.60;;;6.70
68911;BMP180;55953;51.650;-0.522;2024-01-06T01:10:31;100170.20;;;6.70
68911;BMP180;55953;51.650;-0.522;2024-01-06T01:12:59;100173.20;;;6.74
68911;BMP180;55953;51.650;-0.522;2024-01-06T01:15:28;100172.00;;;6.80
68911;BMP180;55953;51.650;-0.522;2024-01-06T01:17:56;100176.40;;;6.80
68911;BMP180;55953;51.650;-0.522;2024-01-06T01:20:24;100176.60;;;6.80
68911;BMP180;55953;51.650;-0.522;2024-01-06T01:22:52;100177.20;;;6.80
68911;BMP180;55953;51.650;-0.522;2024-01-06T01:25:20;100182.00;;;6.90
68911;BMP180;55953;51.650;-0.522;2024-01-06T01:27:48;100181.00;;;6.94
68911;BMP180;55953;51.650;-0.522;2024-01-06T01:30:16;100176.60;;;6.98
68911;BMP180;55953;51.650;-0.522;2024-01-06T01:32:45;100180.80;;;6.90
68911;BMP180;55953;51.650;-0.522;2024-01-06T01:35:13;100187.80;;;6.92
68911;BMP180;55953;51.650;-0.522;2024-01-06T01:37:41;100183.20;;;6.92
68911;BMP180;55953;51.650;-0.522;2024-01-06T01:40:09;100186.20;;;6.98
68911;BMP180;55953;51.650;-0.522;2024-01-06T01:42:37;100192.80;;;6.96
68911;BMP180;55953;51.650;-0.522;2024-01-06T01:45:06;100193.00;;;7.00
68911;BMP180;55953;51.650;-0.522;2024-01-06T01:47:37;100196.80;;;7.00
68911;BMP180;55953;51.650;-0.522;2024-01-06T01:50:06;100197.00;;;7.10
68911;BMP180;55953;51.650;-0.522;2024-01-06T01:52:36;100200.00;;;7.10
68911;BMP180;55953;51.650;-0.522;2024-01-06T01:55:05;100207.40;;;7.10
68911;BMP180;55953;51.650;-0.522;2024-01-06T01:57:33;100206.00;;;7.10
68911;BMP180;55953;51.650;-0.522;2024-01-06T02:00:01;100206.80;;;7.20
68911;BMP180;55953;51.650;-0.522;2024-01-06T02:02:38;100212.20;;;7.20
68911;BMP180;55953;51.650;-0.522;2024-01-06T02:05:06;100216.40;;;7.12
68911;BMP180;55953;51.650;-0.522;2024-01-06T02:07:35;100218.00;;;7.10
68911;BMP180;55953;51.650;-0.522;2024-01-06T02:10:03;100220.80;;;7.10
68911;BMP180;55953;51.650;-0.522;2024-01-06T02:12:31;100229.20;;;7.16
68911;BMP180;55953;51.650;-0.522;2024-01-06T02:15:00;100223.00;;;7.20
68911;BMP180;55953;51.650;-0.522;2024-01-06T02:17:27;100225.60;;;7.20
68911;BMP180;55953;51.650;-0.522;2024-01-06T02:19:56;100226.00;;;7.20
68911;BMP180;55953;51.650;-0.522;2024-01-06T02:22:24;100226.40;;;7.20
68911;BMP180;55953;51.650;-0.522;2024-01-06T02:24:53;100231.20;;;7.12
68911;BMP180;55953;51.650;-0.522;2024-01-06T02:27:21;100235.40;;;7.14
68911;BMP180;55953;51.650;-0.522;2024-01-06T02:29:49;100239.00;;;7.10
68911;BMP180;55953;51.650;-0.522;2024-01-06T02:32:17;100241.00;;;7.10
68911;BMP180;55953;51.650;-0.522;2024-01-06T02:34:45;100250.20;;;7.10
68911;BMP180;55953;51.650;-0.522;2024-01-06T02:37:13;100252.60;;;7.10
68911;BMP180;55953;51.650;-0.522;2024-01-06T02:39:41;100251.20;;;7.10
68911;BMP180;55953;51.650;-0.522;2024-01-06T02:42:10;100256.80;;;7.10
68911;BMP180;55953;51.650;-0.522;2024-01-06T02:44:38;100253.80;;;7.04
68911;BMP180;55953;51.650;-0.522;2024-01-06T02:47:06;100254.40;;;7.02
68911;BMP180;55953;51.650;-0.522;2024-01-06T02:49:34;100249.80;;;7.00
68911;BMP180;55953;51.650;-0.522;2024-01-06T02:52:02;100254.40;;;7.00
68911;BMP180;55953;51.650;-0.522;2024-01-06T02:54:30;100260.60;;;6.98
68911;BMP180;55953;51.650;-0.522;2024-01-06T02:56:58;100260.80;;;7.00
68911;BMP180;55953;51.650;-0.522;2024-01-06T02:59:26;100263.20;;;7.00
68911;BMP180;55953;51.650;-0.522;2024-01-06T03:01:54;100263.80;;;7.00
68911;BMP180;55953;51.650;-0.522;2024-01-06T03:04:22;100267.60;;;7.00
68911;BMP180;55953;51.650;-0.522;2024-01-06T03:06:50;100270.40;;;7.00
68911;BMP180;55953;51.650;-0.522;2024-01-06T03:09:21;100268.60;;;7.00
68911;BMP180;55953;51.650;-0.522;2024-01-06T03:11:49;100277.00;;;6.98
68911;BMP180;55953;51.650;-0.522;2024-01-06T03:14:17;100281.00;;;6.90
68911;BMP180;55953;51.650;-0.522;2024-01-06T03:16:46;100285.00;;;6.90
68911;BMP180;55953;51.650;-0.522;2024-01-06T03:19:14;100289.00;;;6.90
68911;BMP180;55953;51.650;-0.522;2024-01-06T03:21:42;100288.20;;;6.90
68911;BMP180;55953;51.650;-0.522;2024-01-06T03:24:10;100289.40;;;6.80
68911;BMP180;55953;51.650;-0.522;2024-01-06T03:26:38;100293.00;;;6.80
68911;BMP180;55953;51.650;-0.522;2024-01-06T03:29:06;100293.80;;;6.80
68911;BMP180;55953;51.650;-0.522;2024-01-06T03:31:34;100293.80;;;6.80
68911;BMP180;55953;51.650;-0.522;2024-01-06T03:34:02;100294.20;;;6.80
68911;BMP180;55953;51.650;-0.522;2024-01-06T03:36:30;100297.80;;;6.70
68911;BMP180;55953;51.650;-0.522;2024-01-06T03:38:59;100308.60;;;6.70
68911;BMP180;55953;51.650;-0.522;2024-01-06T03:41:27;100308.80;;;6.70
68911;BMP180;55953;51.650;-0.522;2024-01-06T03:43:55;100310.00;;;6.80
68911;BMP180;55953;51.650;-0.522;2024-01-06T03:46:23;100309.60;;;6.70
68911;BMP180;55953;51.650;-0.522;2024-01-06T03:48:51;100312.40;;;6.70
68911;BMP180;55953;51.650;-0.522;2024-01-06T03:51:20;100315.20;;;6.70
68911;BMP180;55953;51.650;-0.522;2024-01-06T03:53:48;100319.00;;;6.70
68911;BMP180;55953;51.650;-0.522;2024-01-06T03:56:17;100320.00;;;6.70
68911;BMP180;55953;51.650;-0.522;2024-01-06T03:58:46;100327.20;;;6.70
68911;BMP180;55953;51.650;-0.522;2024-01-06T04:01:14;100334.40;;;6.72
68911;BMP180;55953;51.650;-0.522;2024-01-06T04:03:42;100334.40;;;6.70
68911;BMP180;55953;51.650;-0.522;2024-01-06T04:06:10;100344.00;;;6.70
68911;BMP180;55953;51.650;-0.522;2024-01-06T04:08:40;100340.80;;;6.66
68911;BMP180;55953;51.650;-0.522;2024-01-06T04:11:10;100342.40;;;6.60
68911;BMP180;55953;51.650;-0.522;2024-01-06T04:13:38;100341.60;;;6.60
68911;BMP180;55953;51.650;-0.522;2024-01-06T04:16:06;100345.00;;;6.54
68911;BMP180;55953;51.650;-0.522;2024-01-06T04:18:34;100346.00;;;6.50
68911;BMP180;55953;51.650;-0.522;2024-01-06T04:21:03;100347.80;;;6.56
68911;BMP180;55953;51.650;-0.522;2024-01-06T04:23:32;100348.80;;;6.60
68911;BMP180;55953;51.650;-0.522;2024-01-06T04:26:00;100355.40;;;6.50
68911;BMP180;55953;51.650;-0.522;2024-01-06T04:28:29;100358.00;;;6.48
68911;BMP180;55953;51.650;-0.522;2024-01-06T04:30:57;100363.60;;;6.40
68911;BMP180;55953;51.650;-0.522;2024-01-06T04:33:25;100362.80;;;6.40
68911;BMP180;55953;51.650;-0.522;2024-01-06T04:35:53;100367.40;;;6.40
68911;BMP180;55953;51.650;-0.522;2024-01-06T04:38:21;100373.00;;;6.40
68911;BMP180;55953;51.650;-0.522;2024-01-06T04:40:49;100370.20;;;6.40
68911;BMP180;55953;51.650;-0.522;2024-01-06T04:43:17;100375.20;;;6.30
68911;BMP180;55953;51.650;-0.522;2024-01-06T04:45:45;100379.80;;;6.34
68911;BMP180;55953;51.650;-0.522;2024-01-06T04:48:13;100381.80;;;6.38
68911;BMP180;55953;51.650;-0.522;2024-01-06T04:50:41;100387.40;;;6.30
68911;BMP180;55953;51.650;-0.522;2024-01-06T04:53:09;100383.60;;;6.34
68911;BMP180;55953;51.650;-0.522;2024-01-06T04:55:37;100382.00;;;6.30
68911;BMP180;55953;51.650;-0.522;2024-01-06T04:58:06;100384.80;;;6.30
68911;BMP180;55953;51.650;-0.522;2024-01-06T05:00:33;100388.80;;;6.30
68911;BMP180;55953;51.650;-0.522;2024-01-06T05:03:04;100390.60;;;6.30
68911;BMP180;55953;51.650;-0.522;2024-01-06T05:05:32;100390.40;;;6.20
68911;BMP180;55953;51.650;-0.522;2024-01-06T05:08:00;100386.00;;;6.20
68911;BMP180;55953;51.650;-0.522;2024-01-06T05:10:29;100388.00;;;6.20
68911;BMP180;55953;51.650;-0.522;2024-01-06T05:12:57;100390.80;;;6.20
68911;BMP180;55953;51.650;-0.522;2024-01-06T05:15:25;100387.60;;;6.20
68911;BMP180;55953;51.650;-0.522;2024-01-06T05:17:53;100390.20;;;6.12
68911;BMP180;55953;51.650;-0.522;2024-01-06T05:20:21;100399.20;;;6.18
68911;BMP180;55953;51.650;-0.522;2024-01-06T05:22:49;100396.20;;;6.20
68911;BMP180;55953;51.650;-0.522;2024-01-06T05:25:18;100400.60;;;6.20
68911;BMP180;55953;51.650;-0.522;2024-01-06T05:27:47;100417.00;;;6.20
68911;BMP180;55953;51.650;-0.522;2024-01-06T05:30:15;100418.00;;;6.20
68911;BMP180;55953;51.650;-0.522;2024-01-06T05:32:43;100416.00;;;6.20
68911;BMP180;55953;51.650;-0.522;2024-01-06T05:35:11;100424.80;;;6.20
68911;BMP180;55953;51.650;-0.522;2024-01-06T05:37:40;100424.20;;;6.20
68911;BMP180;55953;51.650;-0.522;2024-01-06T05:40:09;100427.60;;;6.20
68911;BMP180;55953;51.650;-0.522;2024-01-06T05:42:37;100430.20;;;6.20
68911;BMP180;55953;51.650;-0.522;2024-01-06T05:45:05;100438.00;;;6.20
68911;BMP180;55953;51.650;-0.522;2024-01-06T05:47:33;100440.00;;;6.20
68911;BMP180;55953;51.650;-0.522;2024-01-06T05:50:02;100442.00;;;6.20
68911;BMP180;55953;51.650;-0.522;2024-01-06T05:52:29;100443.00;;;6.24
68911;BMP180;55953;51.650;-0.522;2024-01-06T05:54:58;100442.80;;;6.20
68911;BMP180;55953;51.650;-0.522;2024-01-06T05:57:26;100449.40;;;6.20
68911;BMP180;55953;51.650;-0.522;2024-01-06T05:59:54;100453.00;;;6.20
68911;BMP180;55953;51.650;-0.522;2024-01-06T06:02:22;100452.80;;;6.20
68911;BMP180;55953;51.650;-0.522;2024-01-06T06:04:52;100455.60;;;6.20
68911;BMP180;55953;51.650;-0.522;2024-01-06T06:07:20;100460.20;;;6.20
68911;BMP180;55953;51.650;-0.522;2024-01-06T06:09:48;100459.20;;;6.20
68911;BMP180;55953;51.650;-0.522;2024-01-06T06:12:16;100465.20;;;6.20
68911;BMP180;55953;51.650;-0.522;2024-01-06T06:14:44;100462.60;;;6.20
68911;BMP180;55953;51.650;-0.522;2024-01-06T06:17:12;100467.40;;;6.20
68911;BMP180;55953;51.650;-0.522;2024-01-06T06:19:40;100474.00;;;6.20
68911;BMP180;55953;51.650;-0.522;2024-01-06T06:22:08;100478.80;;;6.20
68911;BMP180;55953;51.650;-0.522;2024-01-06T06:24:36;100483.80;;;6.20
68911;BMP180;55953;51.650;-0.522;2024-01-06T06:27:04;100486.60;;;6.20
68911;BMP180;55953;51.650;-0.522;2024-01-06T06:29:32;100491.40;;;6.20
68911;BMP180;55953;51.650;-0.522;2024-01-06T06:32:00;100496.40;;;6.20
68911;BMP180;55953;51.650;-0.522;2024-01-06T06:34:28;100499.00;;;6.24
68911;BMP180;55953;51.650;-0.522;2024-01-06T06:36:56;100501.80;;;6.30
68911;BMP180;55953;51.650;-0.522;2024-01-06T06:39:26;100511.80;;;6.24
68911;BMP180;55953;51.650;-0.522;2024-01-06T06:41:55;100517.80;;;6.30
68911;BMP180;55953;51.650;-0.522;2024-01-06T06:44:23;100522.80;;;6.30
68911;BMP180;55953;51.650;-0.522;2024-01-06T06:46:51;100525.40;;;6.30
68911;BMP180;55953;51.650;-0.522;2024-01-06T06:49:20;100532.00;;;6.30
68911;BMP180;55953;51.650;-0.522;2024-01-06T06:51:48;100531.60;;;6.20
68911;BMP180;55953;51.650;-0.522;2024-01-06T06:54:17;100542.00;;;6.28
68911;BMP180;55953;51.650;-0.522;2024-01-06T06:56:45;100538.00;;;6.30
68911;BMP180;55953;51.650;-0.522;2024-01-06T06:59:13;100543.20;;;6.26
68911;BMP180;55953;51.650;-0.522;2024-01-06T07:01:42;100549.40;;;6.28
68911;BMP180;55953;51.650;-0.522;2024-01-06T07:04:10;100551.60;;;6.30
68911;BMP180;55953;51.650;-0.522;2024-01-06T07:06:38;100553.80;;;6.30
68911;BMP180;55953;51.650;-0.522;2024-01-06T07:09:06;100564.80;;;6.30
68911;BMP180;55953;51.650;-0.522;2024-01-06T07:11:34;100565.00;;;6.30
68911;BMP180;55953;51.650;-0.522;2024-01-06T07:14:02;100567.20;;;6.30
68911;BMP180;55953;51.650;-0.522;2024-01-06T07:16:30;100575.00;;;6.22
68911;BMP180;55953;51.650;-0.522;2024-01-06T07:18:58;100573.60;;;6.22
68911;BMP180;55953;51.650;-0.522;2024-01-06T07:21:27;100584.00;;;6.20
68911;BMP180;55953;51.650;-0.522;2024-01-06T07:23:55;100593.60;;;6.20
68911;BMP180;55953;51.650;-0.522;2024-01-06T07:26:23;100590.00;;;6.20
68911;BMP180;55953;51.650;-0.522;2024-01-06T07:28:51;100596.00;;;6.20
68911;BMP180;55953;51.650;-0.522;2024-01-06T07:31:19;100601.80;;;6.20
68911;BMP180;55953;51.650;-0.522;2024-01-06T07:33:47;100609.20;;;6.20
68911;BMP180;55953;51.650;-0.522;2024-01-06T07:36:15;100611.40;;;6.20
68911;BMP180;55953;51.650;-0.522;2024-01-06T07:38:45;100612.20;;;6.20
68911;BMP180;55953;51.650;-0.522;2024-01-06T07:41:13;100616.00;;;6.18
68911;BMP180;55953;51.650;-0.522;2024-01-06T07:43:41;100617.00;;;6.20
68911;BMP180;55953;51.650;-0.522;2024-01-06T07:46:09;100612.60;;;6.10
68911;BMP180;55953;51.650;-0.522;2024-01-06T07:48:37;100613.80;;;6.10
68911;BMP180;55953;51.650;-0.522;2024-01-06T07:51:05;100623.00;;;6.10
68911;BMP180;55953;51.650;-0.522;2024-01-06T07:53:33;100626.00;;;6.10
68911;BMP180;55953;51.650;-0.522;2024-01-06T07:56:01;100628.60;;;6.12
68911;BMP180;55953;51.650;-0.522;2024-01-06T07:58:30;100629.00;;;6.10
68911;BMP180;55953;51.650;-0.522;2024-01-06T08:00:58;100630.40;;;6.10
68911;BMP180;55953;51.650;-0.522;2024-01-06T08:03:26;100646.80;;;6.10
68911;BMP180;55953;51.650;-0.522;2024-01-06T08:05:54;100649.20;;;6.00
68911;BMP180;55953;51.650;-0.522;2024-01-06T08:08:22;100647.00;;;6.00
68911;BMP180;55953;51.650;-0.522;2024-01-06T08:10:50;100652.80;;;5.90
68911;BMP180;55953;51.650;-0.522;2024-01-06T08:13:18;100660.20;;;5.90
68911;BMP180;55953;51.650;-0.522;2024-01-06T08:15:46;100657.60;;;5.90
68911;BMP180;55953;51.650;-0.522;2024-01-06T08:18:14;100664.40;;;5.90
68911;BMP180;55953;51.650;-0.522;2024-01-06T08:20:42;100666.60;;;5.90
68911;BMP180;55953;51.650;-0.522;2024-01-06T08:23:10;100672.60;;;5.90
68911;BMP180;55953;51.650;-0.522;2024-01-06T08:25:38;100680.40;;;5.80
68911;BMP180;55953;51.650;-0.522;2024-01-06T08:28:06;100680.40;;;5.80
68911;BMP180;55953;51.650;-0.522;2024-01-06T08:30:34;100687.00;;;5.70
68911;BMP180;55953;51.650;-0.522;2024-01-06T08:33:03;100688.60;;;5.70
68911;BMP180;55953;51.650;-0.522;2024-01-06T08:35:31;100696.60;;;5.60
68911;BMP180;55953;51.650;-0.522;2024-01-06T08:37:59;100702.00;;;5.60
68911;BMP180;55953;51.650;-0.522;2024-01-06T08:40:27;100700.00;;;5.60
68911;BMP180;55953;51.650;-0.522;2024-01-06T08:42:55;100701.80;;;5.58
68911;BMP180;55953;51.650;-0.522;2024-01-06T08:45:23;100712.80;;;5.52
68911;BMP180;55953;51.650;-0.522;2024-01-06T08:47:52;100711.00;;;5.60
68911;BMP180;55953;51.650;-0.522;2024-01-06T08:50:20;100716.20;;;5.60
68911;BMP180;55953;51.650;-0.522;2024-01-06T08:52:48;100719.20;;;5.60
68911;BMP180;55953;51.650;-0.522;2024-01-06T08:55:16;100719.60;;;5.60
68911;BMP180;55953;51.650;-0.522;2024-01-06T08:57:44;100723.80;;;5.64
68911;BMP180;55953;51.650;-0.522;2024-01-06T09:00:13;100728.60;;;5.70
68911;BMP180;55953;51.650;-0.522;2024-01-06T09:02:41;100726.20;;;5.80
68911;BMP180;55953;51.650;-0.522;2024-01-06T09:05:09;100735.40;;;5.82
68911;BMP180;55953;51.650;-0.522;2024-01-06T09:07:37;100734.60;;;5.90
68911;BMP180;55953;51.650;-0.522;2024-01-06T09:10:05;100732.60;;;5.92
68911;BMP180;55953;51.650;-0.522;2024-01-06T09:12:33;100743.60;;;6.00
68911;BMP180;55953;51.650;-0.522;2024-01-06T09:15:01;100743.80;;;6.10
68911;BMP180;55953;51.650;-0.522;2024-01-06T09:17:29;100749.40;;;6.10
68911;BMP180;55953;51.650;-0.522;2024-01-06T09:19:57;100760.40;;;6.10
68911;BMP180;55953;51.650;-0.522;2024-01-06T09:22:27;100768.20;;;6.12
68911;BMP180;55953;51.650;-0.522;2024-01-06T09:24:55;100773.00;;;6.20
68911;BMP180;55953;51.650;-0.522;2024-01-06T09:27:23;100772.60;;;6.20
68911;BMP180;55953;51.650;-0.522;2024-01-06T09:29:51;100780.40;;;6.20
68911;BMP180;55953;51.650;-0.522;2024-01-06T09:32:19;100782.80;;;6.30
68911;BMP180;55953;51.650;-0.522;2024-01-06T09:34:47;100791.60;;;6.30
68911;BMP180;55953;51.650;-0.522;2024-01-06T09:37:15;100790.00;;;6.30
68911;BMP180;55953;51.650;-0.522;2024-01-06T09:39:43;100794.20;;;6.30
68911;BMP180;55953;51.650;-0.522;2024-01-06T09:42:11;100795.60;;;6.30
68911;BMP180;55953;51.650;-0.522;2024-01-06T09:44:40;100796.00;;;6.40
68911;BMP180;55953;51.650;-0.522;2024-01-06T09:47:12;100795.40;;;6.40
68911;BMP180;55953;51.650;-0.522;2024-01-06T09:49:48;100794.60;;;6.40
68911;BMP180;55953;51.650;-0.522;2024-01-06T09:52:22;100802.60;;;6.50
68911;BMP180;55953;51.650;-0.522;2024-01-06T09:54:54;100801.80;;;6.50
68911;BMP180;55953;51.650;-0.522;2024-01-06T09:57:24;100804.80;;;6.50
68911;BMP180;55953;51.650;-0.522;2024-01-06T09:59:52;100808.60;;;6.50
68911;BMP180;55953;51.650;-0.522;2024-01-06T10:02:20;100816.80;;;6.50
68911;BMP180;55953;51.650;-0.522;2024-01-06T10:04:51;100820.20;;;6.50
68911;BMP180;55953;51.650;-0.522;2024-01-06T10:07:19;100820.80;;;6.60
68911;BMP180;55953;51.650;-0.522;2024-01-06T10:09:47;100822.20;;;6.68
68911;BMP180;55953;51.650;-0.522;2024-01-06T10:12:15;100825.80;;;6.70
68911;BMP180;55953;51.650;-0.522;2024-01-06T10:14:43;100836.80;;;6.70
68911;BMP180;55953;51.650;-0.522;2024-01-06T10:17:11;100836.20;;;6.72
68911;BMP180;55953;51.650;-0.522;2024-01-06T10:19:40;100835.80;;;6.70
68911;BMP180;55953;51.650;-0.522;2024-01-06T10:22:09;100837.80;;;6.80
68911;BMP180;55953;51.650;-0.522;2024-01-06T10:24:38;100840.40;;;6.80
68911;BMP180;55953;51.650;-0.522;2024-01-06T10:27:06;100841.60;;;6.80
68911;BMP180;55953;51.650;-0.522;2024-01-06T10:29:36;100837.80;;;6.88
68911;BMP180;55953;51.650;-0.522;2024-01-06T10:32:05;100849.40;;;6.90
68911;BMP180;55953;51.650;-0.522;2024-01-06T10:34:33;100854.80;;;6.90
68911;BMP180;55953;51.650;-0.522;2024-01-06T10:37:05;100855.40;;;7.00
68911;BMP180;55953;51.650;-0.522;2024-01-06T10:39:34;100856.20;;;7.00
68911;BMP180;55953;51.650;-0.522;2024-01-06T10:42:06;100860.20;;;7.00
68911;BMP180;55953;51.650;-0.522;2024-01-06T10:44:36;100860.20;;;7.10
68911;BMP180;55953;51.650;-0.522;2024-01-06T10:47:06;100859.80;;;7.10
68911;BMP180;55953;51.650;-0.522;2024-01-06T10:49:35;100863.20;;;7.18
68911;BMP180;55953;51.650;-0.522;2024-01-06T10:52:05;100864.00;;;7.30
68911;BMP180;55953;51.650;-0.522;2024-01-06T10:54:35;100857.40;;;7.30
68911;BMP180;55953;51.650;-0.522;2024-01-06T10:57:04;100857.80;;;7.40
68911;BMP180;55953;51.650;-0.522;2024-01-06T10:59:35;100857.00;;;7.40
68911;BMP180;55953;51.650;-0.522;2024-01-06T11:02:05;100861.40;;;7.44
68911;BMP180;55953;51.650;-0.522;2024-01-06T11:04:34;100865.40;;;7.40
68911;BMP180;55953;51.650;-0.522;2024-01-06T11:07:04;100857.20;;;7.40
68911;BMP180;55953;51.650;-0.522;2024-01-06T11:09:37;100861.40;;;7.40
68911;BMP180;55953;51.650;-0.522;2024-01-06T11:12:07;100866.80;;;7.40
68911;BMP180;55953;51.650;-0.522;2024-01-06T11:14:38;100863.00;;;7.40
68911;BMP180;55953;51.650;-0.522;2024-01-06T11:17:06;100867.20;;;7.40
68911;BMP180;55953;51.650;-0.522;2024-01-06T11:22:28;100872.80;;;7.40
68911;BMP180;55953;51.650;-0.522;2024-01-06T11:25:15;100866.60;;;7.50
68911;BMP180;55953;51.650;-0.522;2024-01-06T11:27:44;100871.20;;;7.50
68911;BMP180;55953;51.650;-0.522;2024-01-06T11:30:24;100873.40;;;7.60
68911;BMP180;55953;51.650;-0.522;2024-01-06T11:32:53;100874.60;;;7.60
68911;BMP180;55953;51.650;-0.522;2024-01-06T11:35:27;100877.20;;;7.70
68911;BMP180;55953;51.650;-0.522;2024-01-06T11:38:00;100878.00;;;7.70
68911;BMP180;55953;51.650;-0.522;2024-01-06T11:40:36;100876.00;;;7.70
68911;BMP180;55953;51.650;-0.522;2024-01-06T11:43:08;100882.60;;;7.70
68911;BMP180;55953;51.650;-0.522;2024-01-06T11:45:41;100878.80;;;7.70
68911;BMP180;55953;51.650;-0.522;2024-01-06T11:48:11;100874.20;;;7.70
68911;BMP180;55953;51.650;-0.522;2024-01-06T11:50:41;100876.40;;;7.72
68911;BMP180;55953;51.650;-0.522;2024-01-06T11:53:09;100879.60;;;7.70
68911;BMP180;55953;51.650;-0.522;2024-01-06T11:55:39;100874.60;;;7.70
68911;BMP180;55953;51.650;-0.522;2024-01-06T11:58:08;100876.20;;;7.72
68911;BMP180;55953;51.650;-0.522;2024-01-06T12:00:36;100872.40;;;7.70
68911;BMP180;55953;51.650;-0.522;2024-01-06T12:03:07;100873.60;;;7.70
68911;BMP180;55953;51.650;-0.522;2024-01-06T12:05:35;100870.20;;;7.70
68911;BMP180;55953;51.650;-0.522;2024-01-06T12:08:04;100866.20;;;7.70
68911;BMP180;55953;51.650;-0.522;2024-01-06T12:10:36;100872.00;;;7.70
68911;BMP180;55953;51.650;-0.522;2024-01-06T12:13:06;100869.60;;;7.70
68911;BMP180;55953;51.650;-0.522;2024-01-06T12:15:41;100869.40;;;7.70
68911;BMP180;55953;51.650;-0.522;2024-01-06T12:18:09;100875.60;;;7.70
68911;BMP180;55953;51.650;-0.522;2024-01-06T12:20:38;100873.80;;;7.70
68911;BMP180;55953;51.650;-0.522;2024-01-06T12:23:06;100875.80;;;7.74
68911;BMP180;55953;51.650;-0.522;2024-01-06T12:25:35;100871.60;;;7.80
68911;BMP180;55953;51.650;-0.522;2024-01-06T12:28:07;100870.40;;;7.80
68911;BMP180;55953;51.650;-0.522;2024-01-06T12:30:38;100870.00;;;7.80
68911;BMP180;55953;51.650;-0.522;2024-01-06T12:33:06;100869.40;;;7.90
68911;BMP180;55953;51.650;-0.522;2024-01-06T12:35:34;100866.60;;;7.96
68911;BMP180;55953;51.650;-0.522;2024-01-06T12:38:03;100866.60;;;8.00
68911;BMP180;55953;51.650;-0.522;2024-01-06T12:40:36;100868.00;;;8.00
68911;BMP180;55953;51.650;-0.522;2024-01-06T12:43:08;100871.40;;;8.00
68911;BMP180;55953;51.650;-0.522;2024-01-06T12:45:36;100868.20;;;7.90
68911;BMP180;55953;51.650;-0.522;2024-01-06T12:48:05;100865.60;;;7.80
68911;BMP180;55953;51.650;-0.522;2024-01-06T12:50:33;100867.80;;;7.80
68911;BMP180;55953;51.650;-0.522;2024-01-06T12:53:01;100864.00;;;7.80
68911;BMP180;55953;51.650;-0.522;2024-01-06T12:55:29;100861.80;;;7.72
68911;BMP180;55953;51.650;-0.522;2024-01-06T12:57:57;100867.00;;;7.72
68911;BMP180;55953;51.650;-0.522;2024-01-06T13:00:29;100865.20;;;7.80
68911;BMP180;55953;51.650;-0.522;2024-01-06T13:03:00;100862.60;;;7.86
68911;BMP180;55953;51.650;-0.522;2024-01-06T13:05:28;100857.20;;;7.90
68911;BMP180;55953;51.650;-0.522;2024-01-06T13:07:56;100859.00;;;7.90
68911;BMP180;55953;51.650;-0.522;2024-01-06T13:10:25;100863.20;;;7.94
68911;BMP180;55953;51.650;-0.522;2024-01-06T13:12:53;100870.40;;;8.00
68911;BMP180;55953;51.650;-0.522;2024-01-06T13:15:21;100873.60;;;8.00
68911;BMP180;55953;51.650;-0.522;2024-01-06T13:17:49;100867.00;;;8.00
68911;BMP180;55953;51.650;-0.522;2024-01-06T13:20:19;100865.60;;;7.94
68911;BMP180;55953;51.650;-0.522;2024-01-06T13:22:47;100871.40;;;8.00
68911;BMP180;55953;51.650;-0.522;2024-01-06T13:25:15;100867.00;;;8.00
68911;BMP180;55953;51.650;-0.522;2024-01-06T13:27:43;100869.40;;;8.00
68911;BMP180;55953;51.650;-0.522;2024-01-06T13:30:13;100876.40;;;7.90
68911;BMP180;55953;51.650;-0.522;2024-01-06T13:32:45;100883.20;;;7.98
68911;BMP180;55953;51.650;-0.522;2024-01-06T13:35:13;100878.20;;;8.00
68911;BMP180;55953;51.650;-0.522;2024-01-06T13:37:41;100876.60;;;8.00
68911;BMP180;55953;51.650;-0.522;2024-01-06T13:40:12;100879.00;;;8.00
68911;BMP180;55953;51.650;-0.522;2024-01-06T13:42:40;100878.80;;;8.00
68911;BMP180;55953;51.650;-0.522;2024-01-06T13:45:08;100884.00;;;7.98
68911;BMP180;55953;51.650;-0.522;2024-01-06T13:47:37;100896.00;;;7.82
68911;BMP180;55953;51.650;-0.522;2024-01-06T13:50:05;100896.00;;;7.80
68911;BMP180;55953;51.650;-0.522;2024-01-06T13:52:34;100903.20;;;7.80
68911;BMP180;55953;51.650;-0.522;2024-01-06T13:55:04;100903.00;;;7.76
68911;BMP180;55953;51.650;-0.522;2024-01-06T13:57:32;100899.80;;;7.70
68911;BMP180;55953;51.650;-0.522;2024-01-06T14:00:01;100900.60;;;7.70
68911;BMP180;55953;51.650;-0.522;2024-01-06T14:02:38;100907.40;;;7.70
68911;BMP180;55953;51.650;-0.522;2024-01-06T14:05:06;100910.40;;;7.80
68911;BMP180;55953;51.650;-0.522;2024-01-06T14:07:36;100903.80;;;7.80